Syston, United Kingdom
Current Conditions -  °F | °C
As of 4:50 PM on Tuesday 27 Jan 2015 (Local Time) from EGNX Reporting Station
Broken Clouds Broken Clouds  
Wind Chill: 39°   Ceiling: 2700
Heat Index: 45°   Visibility: 6mi
Dew Point: 37°   Wind: 12mph
Humidity: 76%   Direction: 240°WSW
Pressure: 30.21"   Gusts: NA
Location:  52.68°N, 1.07°W
Report Text: EGNX 271650Z 24010KT 9999 BKN027 07/03 Q1023
Loading
Personal Weather Stations






























Interactive Weather Map New forecast layout! Learn more

10-Day Weather Forecast

Advertisements
Track Severe Weather on mobile